sensor_id;sensor_type;location;lat;lon;timestamp;temperature;humidity
6146;DHT22;3104;50.348;7.620;2023-10-31T00:00:42;12.80;99.90
6146;DHT22;3104;50.348;7.620;2023-10-31T00:03:08;12.70;99.90
6146;DHT22;3104;50.348;7.620;2023-10-31T00:05:33;12.80;99.90
6146;DHT22;3104;50.348;7.620;2023-10-31T00:07:59;12.70;99.90
6146;DHT22;3104;50.348;7.620;2023-10-31T00:10:24;12.60;99.90
6146;DHT22;3104;50.348;7.620;2023-10-31T00:12:50;12.60;99.90
6146;DHT22;3104;50.348;7.620;2023-10-31T00:15:16;12.60;99.90
6146;DHT22;3104;50.348;7.620;2023-10-31T00:17:41;12.60;99.90
6146;DHT22;3104;50.348;7.620;2023-10-31T00:20:07;12.60;99.90
6146;DHT22;3104;50.348;7.620;2023-10-31T00:22:33;12.60;99.90
6146;DHT22;3104;50.348;7.620;2023-10-31T00:24:58;12.50;99.90
6146;DHT22;3104;50.348;7.620;2023-10-31T00:27:24;12.50;99.90
6146;DHT22;3104;50.348;7.620;2023-10-31T00:29:49;12.50;99.90
6146;DHT22;3104;50.348;7.620;2023-10-31T00:32:15;12.50;99.90
6146;DHT22;3104;50.348;7.620;2023-10-31T00:34:40;12.50;99.90
6146;DHT22;3104;50.348;7.620;2023-10-31T00:37:06;12.50;99.90
6146;DHT22;3104;50.348;7.620;2023-10-31T00:39:32;12.50;99.90
6146;DHT22;3104;50.348;7.620;2023-10-31T00:41:59;12.30;99.90
6146;DHT22;3104;50.348;7.620;2023-10-31T00:44:24;12.30;99.90
6146;DHT22;3104;50.348;7.620;2023-10-31T00:46:50;12.20;99.90
6146;DHT22;3104;50.348;7.620;2023-10-31T00:49:15;12.20;99.90
6146;DHT22;3104;50.348;7.620;2023-10-31T00:51:41;12.20;99.90
6146;DHT22;3104;50.348;7.620;2023-10-31T00:54:07;12.10;99.90
6146;DHT22;3104;50.348;7.620;2023-10-31T00:56:32;12.10;99.90
6146;DHT22;3104;50.348;7.620;2023-10-31T00:58:58;12.00;99.90
6146;DHT22;3104;50.348;7.620;2023-10-31T01:01:23;11.90;99.90
6146;DHT22;3104;50.348;7.620;2023-10-31T01:03:49;11.90;99.90
6146;DHT22;3104;50.348;7.620;2023-10-31T01:06:14;11.90;99.90
6146;DHT22;3104;50.348;7.620;2023-10-31T01:08:40;11.90;99.90
6146;DHT22;3104;50.348;7.620;2023-10-31T01:11:05;11.90;99.90
6146;DHT22;3104;50.348;7.620;2023-10-31T01:13:31;12.00;99.90
6146;DHT22;3104;50.348;7.620;2023-10-31T01:15:57;11.90;99.90
6146;DHT22;3104;50.348;7.620;2023-10-31T01:18:22;11.90;99.90
6146;DHT22;3104;50.348;7.620;2023-10-31T01:20:48;11.80;99.90
6146;DHT22;3104;50.348;7.620;2023-10-31T01:23:13;12.00;99.90
6146;DHT22;3104;50.348;7.620;2023-10-31T01:25:39;12.00;99.90
6146;DHT22;3104;50.348;7.620;2023-10-31T01:28:04;11.90;99.90
6146;DHT22;3104;50.348;7.620;2023-10-31T01:30:30;11.90;99.90
6146;DHT22;3104;50.348;7.620;2023-10-31T01:32:55;11.80;99.90
6146;DHT22;3104;50.348;7.620;2023-10-31T01:35:21;11.80;99.90
6146;DHT22;3104;50.348;7.620;2023-10-31T01:37:47;11.70;99.90
6146;DHT22;3104;50.348;7.620;2023-10-31T01:40:13;11.80;99.90
6146;DHT22;3104;50.348;7.620;2023-10-31T01:42:39;11.80;99.90
6146;DHT22;3104;50.348;7.620;2023-10-31T01:45:05;11.90;99.90
6146;DHT22;3104;50.348;7.620;2023-10-31T01:47:32;11.90;99.90
6146;DHT22;3104;50.348;7.620;2023-10-31T01:49:58;11.80;99.90
6146;DHT22;3104;50.348;7.620;2023-10-31T01:52:25;11.80;99.90
6146;DHT22;3104;50.348;7.620;2023-10-31T01:54:50;11.80;99.90
6146;DHT22;3104;50.348;7.620;2023-10-31T01:57:19;11.80;99.90
6146;DHT22;3104;50.348;7.620;2023-10-31T01:59:45;11.70;99.90
6146;DHT22;3104;50.348;7.620;2023-10-31T02:02:10;11.60;99.90
6146;DHT22;3104;50.348;7.620;2023-10-31T02:04:36;11.50;99.90
6146;DHT22;3104;50.348;7.620;2023-10-31T02:07:02;11.50;99.90
6146;DHT22;3104;50.348;7.620;2023-10-31T02:09:27;11.50;99.90
6146;DHT22;3104;50.348;7.620;2023-10-31T02:11:55;11.40;99.90
6146;DHT22;3104;50.348;7.620;2023-10-31T02:14:23;11.40;99.90
6146;DHT22;3104;50.348;7.620;2023-10-31T02:16:49;11.50;99.90
6146;DHT22;3104;50.348;7.620;2023-10-31T02:19:18;11.40;99.90
6146;DHT22;3104;50.348;7.620;2023-10-31T02:21:44;11.30;99.90
6146;DHT22;3104;50.348;7.620;2023-10-31T02:24:10;11.20;99.90
6146;DHT22;3104;50.348;7.620;2023-10-31T02:26:35;11.20;99.90
6146;DHT22;3104;50.348;7.620;2023-10-31T02:29:01;11.20;99.90
6146;DHT22;3104;50.348;7.620;2023-10-31T02:31:27;11.20;99.90
6146;DHT22;3104;50.348;7.620;2023-10-31T02:33:53;11.30;99.90
6146;DHT22;3104;50.348;7.620;2023-10-31T02:36:19;11.30;99.90
6146;DHT22;3104;50.348;7.620;2023-10-31T02:38:45;11.30;99.90
6146;DHT22;3104;50.348;7.620;2023-10-31T02:41:11;11.30;99.90
6146;DHT22;3104;50.348;7.620;2023-10-31T02:43:38;11.30;99.90
6146;DHT22;3104;50.348;7.620;2023-10-31T02:46:03;11.30;99.90
6146;DHT22;3104;50.348;7.620;2023-10-31T02:48:29;11.30;99.90
6146;DHT22;3104;50.348;7.620;2023-10-31T02:50:57;11.20;99.90
6146;DHT22;3104;50.348;7.620;2023-10-31T02:53:23;11.20;99.90
6146;DHT22;3104;50.348;7.620;2023-10-31T02:55:49;11.10;99.90
6146;DHT22;3104;50.348;7.620;2023-10-31T02:58:14;11.00;99.90
6146;DHT22;3104;50.348;7.620;2023-10-31T03:00:42;11.00;99.90
6146;DHT22;3104;50.348;7.620;2023-10-31T03:03:08;11.00;99.90
6146;DHT22;3104;50.348;7.620;2023-10-31T03:05:34;11.00;99.90
6146;DHT22;3104;50.348;7.620;2023-10-31T03:07:59;11.00;99.90
6146;DHT22;3104;50.348;7.620;2023-10-31T03:10:26;11.00;99.90
6146;DHT22;3104;50.348;7.620;2023-10-31T03:12:52;11.00;99.90
6146;DHT22;3104;50.348;7.620;2023-10-31T03:15:17;11.00;99.90
6146;DHT22;3104;50.348;7.620;2023-10-31T03:17:43;11.00;99.90
6146;DHT22;3104;50.348;7.620;2023-10-31T03:20:09;11.00;99.90
6146;DHT22;3104;50.348;7.620;2023-10-31T03:22:35;11.00;99.90
6146;DHT22;3104;50.348;7.620;2023-10-31T03:25:00;11.00;99.90
6146;DHT22;3104;50.348;7.620;2023-10-31T03:27:26;10.90;99.90
6146;DHT22;3104;50.348;7.620;2023-10-31T03:29:52;10.80;99.90
6146;DHT22;3104;50.348;7.620;2023-10-31T03:32:17;10.80;99.90
6146;DHT22;3104;50.348;7.620;2023-10-31T03:34:43;10.80;99.90
6146;DHT22;3104;50.348;7.620;2023-10-31T03:37:08;10.90;99.90
6146;DHT22;3104;50.348;7.620;2023-10-31T03:39:34;10.90;99.90
6146;DHT22;3104;50.348;7.620;2023-10-31T03:42:00;10.90;99.90
6146;DHT22;3104;50.348;7.620;2023-10-31T03:44:25;10.80;99.90
6146;DHT22;3104;50.348;7.620;2023-10-31T03:46:51;10.80;99.90
6146;DHT22;3104;50.348;7.620;2023-10-31T03:49:16;11.00;99.90
6146;DHT22;3104;50.348;7.620;2023-10-31T03:51:42;10.90;99.90
6146;DHT22;3104;50.348;7.620;2023-10-31T03:54:08;11.00;99.90
6146;DHT22;3104;50.348;7.620;2023-10-31T03:56:40;11.00;99.90
6146;DHT22;3104;50.348;7.620;2023-10-31T03:59:06;11.00;99.90
6146;DHT22;3104;50.348;7.620;2023-10-31T04:01:32;11.00;99.90
6146;DHT22;3104;50.348;7.620;2023-10-31T04:03:57;11.00;99.90
6146;DHT22;3104;50.348;7.620;2023-10-31T04:06:23;11.10;99.90
6146;DHT22;3104;50.348;7.620;2023-10-31T04:08:48;11.00;99.90
6146;DHT22;3104;50.348;7.620;2023-10-31T04:11:14;11.10;99.90
6146;DHT22;3104;50.348;7.620;2023-10-31T04:13:39;11.10;99.90
6146;DHT22;3104;50.348;7.620;2023-10-31T04:16:05;11.10;99.90
6146;DHT22;3104;50.348;7.620;2023-10-31T04:18:31;11.10;99.90
6146;DHT22;3104;50.348;7.620;2023-10-31T04:20:56;11.20;99.90
6146;DHT22;3104;50.348;7.620;2023-10-31T04:23:22;11.10;99.90
6146;DHT22;3104;50.348;7.620;2023-10-31T04:25:48;11.10;99.90
6146;DHT22;3104;50.348;7.620;2023-10-31T04:28:13;11.00;99.90
6146;DHT22;3104;50.348;7.620;2023-10-31T04:30:40;11.00;99.90
6146;DHT22;3104;50.348;7.620;2023-10-31T04:33:05;11.10;99.90
6146;DHT22;3104;50.348;7.620;2023-10-31T04:35:31;11.10;99.90
6146;DHT22;3104;50.348;7.620;2023-10-31T04:37:56;11.20;99.90
6146;DHT22;3104;50.348;7.620;2023-10-31T04:40:22;11.10;99.90
6146;DHT22;3104;50.348;7.620;2023-10-31T04:42:47;11.10;99.90
6146;DHT22;3104;50.348;7.620;2023-10-31T04:45:13;11.10;99.90
6146;DHT22;3104;50.348;7.620;2023-10-31T04:47:40;11.10;99.90
6146;DHT22;3104;50.348;7.620;2023-10-31T04:50:05;11.10;99.90
6146;DHT22;3104;50.348;7.620;2023-10-31T04:52:31;11.10;99.90
6146;DHT22;3104;50.348;7.620;2023-10-31T04:54:57;11.20;99.90
6146;DHT22;3104;50.348;7.620;2023-10-31T04:57:22;11.10;99.90
6146;DHT22;3104;50.348;7.620;2023-10-31T04:59:48;11.10;99.90
6146;DHT22;3104;50.348;7.620;2023-10-31T05:02:14;11.00;99.90
6146;DHT22;3104;50.348;7.620;2023-10-31T05:04:39;11.00;99.90
6146;DHT22;3104;50.348;7.620;2023-10-31T05:07:06;11.00;99.90
6146;DHT22;3104;50.348;7.620;2023-10-31T05:09:31;11.10;99.90
6146;DHT22;3104;50.348;7.620;2023-10-31T05:11:57;11.00;99.90
6146;DHT22;3104;50.348;7.620;2023-10-31T05:14:23;11.00;99.90
6146;DHT22;3104;50.348;7.620;2023-10-31T05:16:48;11.10;99.90
6146;DHT22;3104;50.348;7.620;2023-10-31T05:19:14;11.20;99.90
6146;DHT22;3104;50.348;7.620;2023-10-31T05:21:39;11.10;99.90
6146;DHT22;3104;50.348;7.620;2023-10-31T05:24:05;11.20;99.90
6146;DHT22;3104;50.348;7.620;2023-10-31T05:26:31;11.20;99.90
6146;DHT22;3104;50.348;7.620;2023-10-31T05:28:57;11.20;99.90
6146;DHT22;3104;50.348;7.620;2023-10-31T05:31:24;11.10;99.90
6146;DHT22;3104;50.348;7.620;2023-10-31T05:33:51;11.20;99.90
6146;DHT22;3104;50.348;7.620;2023-10-31T05:36:27;11.10;99.90
6146;DHT22;3104;50.348;7.620;2023-10-31T05:38:53;11.20;99.90
6146;DHT22;3104;50.348;7.620;2023-10-31T05:41:19;11.20;99.90
6146;DHT22;3104;50.348;7.620;2023-10-31T05:43:45;11.20;99.90
6146;DHT22;3104;50.348;7.620;2023-10-31T05:46:10;11.20;99.90
6146;DHT22;3104;50.348;7.620;2023-10-31T05:48:40;11.20;99.90
6146;DHT22;3104;50.348;7.620;2023-10-31T05:51:17;11.30;99.90
6146;DHT22;3104;50.348;7.620;2023-10-31T05:53:44;11.30;99.90
6146;DHT22;3104;50.348;7.620;2023-10-31T05:56:12;11.20;99.90
6146;DHT22;3104;50.348;7.620;2023-10-31T05:58:38;11.20;99.90
6146;DHT22;3104;50.348;7.620;2023-10-31T06:01:04;11.30;99.90
6146;DHT22;3104;50.348;7.620;2023-10-31T06:03:29;11.20;99.90
6146;DHT22;3104;50.348;7.620;2023-10-31T06:05:55;11.20;99.90
6146;DHT22;3104;50.348;7.620;2023-10-31T06:08:21;11.10;99.90
6146;DHT22;3104;50.348;7.620;2023-10-31T06:10:46;11.20;99.90
6146;DHT22;3104;50.348;7.620;2023-10-31T06:13:12;11.20;99.90
6146;DHT22;3104;50.348;7.620;2023-10-31T06:15:37;11.30;99.90
6146;DHT22;3104;50.348;7.620;2023-10-31T06:18:03;11.30;99.90
6146;DHT22;3104;50.348;7.620;2023-10-31T06:20:29;11.30;99.90
6146;DHT22;3104;50.348;7.620;2023-10-31T06:22:54;11.30;99.90
6146;DHT22;3104;50.348;7.620;2023-10-31T06:25:20;11.30;99.90
6146;DHT22;3104;50.348;7.620;2023-10-31T06:27:45;11.20;99.90
6146;DHT22;3104;50.348;7.620;2023-10-31T06:30:11;11.20;99.90
6146;DHT22;3104;50.348;7.620;2023-10-31T06:32:37;11.20;99.90
6146;DHT22;3104;50.348;7.620;2023-10-31T06:35:05;11.30;99.90
6146;DHT22;3104;50.348;7.620;2023-10-31T06:37:31;11.30;99.90
6146;DHT22;3104;50.348;7.620;2023-10-31T06:39:56;11.20;99.90
6146;DHT22;3104;50.348;7.620;2023-10-31T06:42:22;11.30;99.90
6146;DHT22;3104;50.348;7.620;2023-10-31T06:44:47;11.20;99.90
6146;DHT22;3104;50.348;7.620;2023-10-31T06:47:13;11.20;99.90
6146;DHT22;3104;50.348;7.620;2023-10-31T06:49:38;11.10;99.90
6146;DHT22;3104;50.348;7.620;2023-10-31T06:52:04;11.10;99.90
6146;DHT22;3104;50.348;7.620;2023-10-31T06:54:30;11.00;99.90
6146;DHT22;3104;50.348;7.620;2023-10-31T06:56:57;11.00;99.90
6146;DHT22;3104;50.348;7.620;2023-10-31T06:59:22;11.00;99.90
6146;DHT22;3104;50.348;7.620;2023-10-31T07:01:48;10.90;99.90
6146;DHT22;3104;50.348;7.620;2023-10-31T07:04:13;10.90;99.90
6146;DHT22;3104;50.348;7.620;2023-10-31T07:06:39;11.00;99.90
6146;DHT22;3104;50.348;7.620;2023-10-31T07:09:04;11.00;99.90
6146;DHT22;3104;50.348;7.620;2023-10-31T07:11:31;11.00;99.90
6146;DHT22;3104;50.348;7.620;2023-10-31T07:14:00;11.10;99.90
6146;DHT22;3104;50.348;7.620;2023-10-31T07:16:27;11.00;99.90
6146;DHT22;3104;50.348;7.620;2023-10-31T07:18:53;11.10;99.90
6146;DHT22;3104;50.348;7.620;2023-10-31T07:21:19;11.10;99.90
6146;DHT22;3104;50.348;7.620;2023-10-31T07:23:45;11.10;99.90
6146;DHT22;3104;50.348;7.620;2023-10-31T07:26:11;11.00;99.90
6146;DHT22;3104;50.348;7.620;2023-10-31T07:28:36;11.00;99.90
6146;DHT22;3104;50.348;7.620;2023-10-31T07:31:02;11.10;99.90
6146;DHT22;3104;50.348;7.620;2023-10-31T07:33:28;11.10;99.90
6146;DHT22;3104;50.348;7.620;2023-10-31T07:35:53;11.10;99.90
6146;DHT22;3104;50.348;7.620;2023-10-31T07:38:19;11.10;99.90
6146;DHT22;3104;50.348;7.620;2023-10-31T07:40:44;11.10;99.90
6146;DHT22;3104;50.348;7.620;2023-10-31T07:43:10;11.10;99.90
6146;DHT22;3104;50.348;7.620;2023-10-31T07:45:35;11.00;99.90
6146;DHT22;3104;50.348;7.620;2023-10-31T07:48:01;11.10;99.90
6146;DHT22;3104;50.348;7.620;2023-10-31T07:50:27;11.10;99.90
6146;DHT22;3104;50.348;7.620;2023-10-31T07:52:52;11.20;99.90
6146;DHT22;3104;50.348;7.620;2023-10-31T07:55:18;11.10;99.90
6146;DHT22;3104;50.348;7.620;2023-10-31T07:57:44;11.00;99.90
6146;DHT22;3104;50.348;7.620;2023-10-31T08:00:11;11.00;99.90
6146;DHT22;3104;50.348;7.620;2023-10-31T08:02:37;11.10;99.90
6146;DHT22;3104;50.348;7.620;2023-10-31T08:05:03;11.10;99.90
6146;DHT22;3104;50.348;7.620;2023-10-31T08:07:28;11.00;99.90
6146;DHT22;3104;50.348;7.620;2023-10-31T08:09:56;11.10;99.90
6146;DHT22;3104;50.348;7.620;2023-10-31T08:12:22;11.00;99.90
6146;DHT22;3104;50.348;7.620;2023-10-31T08:14:48;11.10;99.90
6146;DHT22;3104;50.348;7.620;2023-10-31T08:17:13;11.10;99.90
6146;DHT22;3104;50.348;7.620;2023-10-31T08:19:39;11.00;99.90
6146;DHT22;3104;50.348;7.620;2023-10-31T08:22:04;11.20;99.90
6146;DHT22;3104;50.348;7.620;2023-10-31T08:24:30;11.20;99.90
6146;DHT22;3104;50.348;7.620;2023-10-31T08:26:56;11.20;99.90
6146;DHT22;3104;50.348;7.620;2023-10-31T08:29:21;11.20;99.90
6146;DHT22;3104;50.348;7.620;2023-10-31T08:31:47;11.20;99.90
6146;DHT22;3104;50.348;7.620;2023-10-31T08:34:12;11.20;99.90
6146;DHT22;3104;50.348;7.620;2023-10-31T08:36:38;11.30;99.90
6146;DHT22;3104;50.348;7.620;2023-10-31T08:39:03;11.40;99.90
6146;DHT22;3104;50.348;7.620;2023-10-31T08:41:29;11.30;99.90
6146;DHT22;3104;50.348;7.620;2023-10-31T08:43:54;11.30;99.90
6146;DHT22;3104;50.348;7.620;2023-10-31T08:46:20;11.30;99.90
6146;DHT22;3104;50.348;7.620;2023-10-31T08:48:47;11.40;99.90
6146;DHT22;3104;50.348;7.620;2023-10-31T08:51:12;11.40;99.90
6146;DHT22;3104;50.348;7.620;2023-10-31T08:53:38;11.40;99.90
6146;DHT22;3104;50.348;7.620;2023-10-31T08:56:04;11.50;99.90
6146;DHT22;3104;50.348;7.620;2023-10-31T08:58:29;11.60;99.90
6146;DHT22;3104;50.348;7.620;2023-10-31T09:00:55;11.40;99.90
6146;DHT22;3104;50.348;7.620;2023-10-31T09:03:21;11.40;99.90
6146;DHT22;3104;50.348;7.620;2023-10-31T09:05:46;11.50;99.90
6146;DHT22;3104;50.348;7.620;2023-10-31T09:08:12;11.50;99.90
6146;DHT22;3104;50.348;7.620;2023-10-31T09:10:37;11.50;99.90
6146;DHT22;3104;50.348;7.620;2023-10-31T09:13:08;11.50;99.90
6146;DHT22;3104;50.348;7.620;2023-10-31T09:15:33;11.50;99.90
6146;DHT22;3104;50.348;7.620;2023-10-31T09:17:59;11.50;99.90
6146;DHT22;3104;50.348;7.620;2023-10-31T09:20:24;11.60;99.90
6146;DHT22;3104;50.348;7.620;2023-10-31T09:22:51;11.50;99.90
6146;DHT22;3104;50.348;7.620;2023-10-31T09:25:16;11.70;99.90
6146;DHT22;3104;50.348;7.620;2023-10-31T09:27:42;11.70;99.90
6146;DHT22;3104;50.348;7.620;2023-10-31T09:30:08;11.60;99.90
6146;DHT22;3104;50.348;7.620;2023-10-31T09:32:34;11.60;99.90
6146;DHT22;3104;50.348;7.620;2023-10-31T09:34:59;11.60;99.90
6146;DHT22;3104;50.348;7.620;2023-10-31T09:37:25;11.50;99.90
6146;DHT22;3104;50.348;7.620;2023-10-31T09:39:50;11.50;99.90
6146;DHT22;3104;50.348;7.620;2023-10-31T09:42:16;11.50;99.90
6146;DHT22;3104;50.348;7.620;2023-10-31T09:44:42;11.50;99.90
6146;DHT22;3104;50.348;7.620;2023-10-31T09:47:07;11.60;99.90
6146;DHT22;3104;50.348;7.620;2023-10-31T09:49:34;11.70;99.90
6146;DHT22;3104;50.348;7.620;2023-10-31T09:51:59;11.80;71.70
6146;DHT22;3104;50.348;7.620;2023-10-31T09:54:26;11.90;97.90
6146;DHT22;3104;50.348;7.620;2023-10-31T09:56:52;12.10;48.40
6146;DHT22;3104;50.348;7.620;2023-10-31T09:59:18;12.20;22.20
6146;DHT22;3104;50.348;7.620;2023-10-31T10:01:44;12.20;1.00
6146;DHT22;3104;50.348;7.620;2023-10-31T10:04:10;12.20;1.00
6146;DHT22;3104;50.348;7.620;2023-10-31T10:06:35;12.20;1.00
6146;DHT22;3104;50.348;7.620;2023-10-31T10:09:04;12.10;1.00
6146;DHT22;3104;50.348;7.620;2023-10-31T10:11:33;12.00;1.00
6146;DHT22;3104;50.348;7.620;2023-10-31T10:13:59;11.90;26.40
6146;DHT22;3104;50.348;7.620;2023-10-31T10:16:29;12.00;16.00
6146;DHT22;3104;50.348;7.620;2023-10-31T10:18:55;11.80;9.30
6146;DHT22;3104;50.348;7.620;2023-10-31T10:21:21;11.90;90.40
6146;DHT22;3104;50.348;7.620;2023-10-31T10:23:47;12.00;99.90
6146;DHT22;3104;50.348;7.620;2023-10-31T10:26:14;12.10;29.90
6146;DHT22;3104;50.348;7.620;2023-10-31T10:28:40;12.10;1.00
6146;DHT22;3104;50.348;7.620;2023-10-31T10:31:06;12.20;1.00
6146;DHT22;3104;50.348;7.620;2023-10-31T10:33:33;12.10;1.00
6146;DHT22;3104;50.348;7.620;2023-10-31T10:35:59;12.20;1.00
6146;DHT22;3104;50.348;7.620;2023-10-31T10:38:25;12.40;1.00
6146;DHT22;3104;50.348;7.620;2023-10-31T10:40:53;12.40;1.00
6146;DHT22;3104;50.348;7.620;2023-10-31T10:43:25;12.50;1.00
6146;DHT22;3104;50.348;7.620;2023-10-31T10:45:58;12.50;1.00
6146;DHT22;3104;50.348;7.620;2023-10-31T10:48:25;12.50;1.00
6146;DHT22;3104;50.348;7.620;2023-10-31T10:53:23;12.70;1.00
6146;DHT22;3104;50.348;7.620;2023-10-31T10:55:56;12.90;99.90
6146;DHT22;3104;50.348;7.620;2023-10-31T10:58:26;13.10;1.00
6146;DHT22;3104;50.348;7.620;2023-10-31T11:00:53;13.00;68.70
6146;DHT22;3104;50.348;7.620;2023-10-31T11:03:21;12.80;12.20
6146;DHT22;3104;50.348;7.620;2023-10-31T11:05:47;12.80;99.90
6146;DHT22;3104;50.348;7.620;2023-10-31T11:08:14;13.00;99.90
6146;DHT22;3104;50.348;7.620;2023-10-31T11:10:40;13.40;94.60
6146;DHT22;3104;50.348;7.620;2023-10-31T11:13:06;13.40;1.00
6146;DHT22;3104;50.348;7.620;2023-10-31T11:15:33;13.40;1.00
6146;DHT22;3104;50.348;7.620;2023-10-31T11:17:59;13.60;1.00
6146;DHT22;3104;50.348;7.620;2023-10-31T11:20:26;13.60;1.00
6146;DHT22;3104;50.348;7.620;2023-10-31T11:22:55;13.70;1.00
6146;DHT22;3104;50.348;7.620;2023-10-31T11:25:23;13.90;99.90
6146;DHT22;3104;50.348;7.620;2023-10-31T11:27:52;14.10;40.20
6146;DHT22;3104;50.348;7.620;2023-10-31T11:32:59;14.50;1.00
6146;DHT22;3104;50.348;7.620;2023-10-31T11:35:29;14.10;1.00
6146;DHT22;3104;50.348;7.620;2023-10-31T11:38:07;14.20;99.90
6146;DHT22;3104;50.348;7.620;2023-10-31T11:40:33;14.30;1.00
6146;DHT22;3104;50.348;7.620;2023-10-31T11:43:02;14.40;1.00
6146;DHT22;3104;50.348;7.620;2023-10-31T11:45:33;14.70;1.00
6146;DHT22;3104;50.348;7.620;2023-10-31T11:48:00;14.70;1.00
6146;DHT22;3104;50.348;7.620;2023-10-31T11:50:26;14.50;1.00
6146;DHT22;3104;50.348;7.620;2023-10-31T11:53:14;14.70;1.00
6146;DHT22;3104;50.348;7.620;2023-10-31T11:55:43;14.50;7.40
6146;DHT22;3104;50.348;7.620;2023-10-31T11:58:26;14.40;99.90
6146;DHT22;3104;50.348;7.620;2023-10-31T12:01:04;14.50;1.00
6146;DHT22;3104;50.348;7.620;2023-10-31T12:03:38;14.90;99.90
6146;DHT22;3104;50.348;7.620;2023-10-31T12:06:05;15.50;1.00
6146;DHT22;3104;50.348;7.620;2023-10-31T12:08:37;15.40;99.90
6146;DHT22;3104;50.348;7.620;2023-10-31T12:11:13;15.30;1.00
6146;DHT22;3104;50.348;7.620;2023-10-31T12:13:40;15.20;1.00
6146;DHT22;3104;50.348;7.620;2023-10-31T12:16:08;15.70;99.90
6146;DHT22;3104;50.348;7.620;2023-10-31T12:18:34;15.60;99.90
6146;DHT22;3104;50.348;7.620;2023-10-31T12:21:01;15.40;99.90
6146;DHT22;3104;50.348;7.620;2023-10-31T12:23:27;15.80;99.90
6146;DHT22;3104;50.348;7.620;2023-10-31T12:25:53;16.20;38.40
6146;DHT22;3104;50.348;7.620;2023-10-31T12:28:24;16.50;1.00
6146;DHT22;3104;50.348;7.620;2023-10-31T12:30:52;15.80;1.00
6146;DHT22;3104;50.348;7.620;2023-10-31T12:33:20;15.80;1.00
6146;DHT22;3104;50.348;7.620;2023-10-31T12:35:47;15.90;1.00
6146;DHT22;3104;50.348;7.620;2023-10-31T12:38:14;16.00;1.00
6146;DHT22;3104;50.348;7.620;2023-10-31T12:40:41;16.20;1.00
6146;DHT22;3104;50.348;7.620;2023-10-31T12:43:08;16.10;1.00
6146;DHT22;3104;50.348;7.620;2023-10-31T12:45:35;16.10;1.00
6146;DHT22;3104;50.348;7.620;2023-10-31T12:48:05;16.30;1.00
6146;DHT22;3104;50.348;7.620;2023-10-31T12:50:32;16.30;1.00
6146;DHT22;3104;50.348;7.620;2023-10-31T12:52:58;15.90;1.00
6146;DHT22;3104;50.348;7.620;2023-10-31T12:55:29;15.60;1.00
6146;DHT22;3104;50.348;7.620;2023-10-31T12:57:55;15.70;1.00
6146;DHT22;3104;50.348;7.620;2023-10-31T13:00:23;16.00;1.00
6146;DHT22;3104;50.348;7.620;2023-10-31T13:03:01;16.00;1.00
6146;DHT22;3104;50.348;7.620;2023-10-31T13:05:27;16.20;1.00
6146;DHT22;3104;50.348;7.620;2023-10-31T13:07:55;16.40;1.00
6146;DHT22;3104;50.348;7.620;2023-10-31T13:10:23;16.60;99.90
6146;DHT22;3104;50.348;7.620;2023-10-31T13:12:49;16.20;1.00
6146;DHT22;3104;50.348;7.620;2023-10-31T13:15:16;15.90;1.00
6146;DHT22;3104;50.348;7.620;2023-10-31T13:17:42;16.40;1.00
6146;DHT22;3104;50.348;7.620;2023-10-31T13:20:13;15.90;99.90
6146;DHT22;3104;50.348;7.620;2023-10-31T13:22:40;15.60;1.00
6146;DHT22;3104;50.348;7.620;2023-10-31T13:25:07;15.00;1.00
6146;DHT22;3104;50.348;7.620;2023-10-31T13:27:35;15.20;1.00
6146;DHT22;3104;50.348;7.620;2023-10-31T13:30:01;15.20;1.00
6146;DHT22;3104;50.348;7.620;2023-10-31T13:32:27;15.20;1.00
6146;DHT22;3104;50.348;7.620;2023-10-31T13:34:53;15.20;1.00
6146;DHT22;3104;50.348;7.620;2023-10-31T13:37:18;15.20;1.00
6146;DHT22;3104;50.348;7.620;2023-10-31T13:39:44;15.10;1.00
6146;DHT22;3104;50.348;7.620;2023-10-31T13:42:09;15.10;34.00
6146;DHT22;3104;50.348;7.620;2023-10-31T13:44:36;14.90;41.30
6146;DHT22;3104;50.348;7.620;2023-10-31T13:47:02;14.90;1.00
6146;DHT22;3104;50.348;7.620;2023-10-31T13:49:27;15.20;1.00
6146;DHT22;3104;50.348;7.620;2023-10-31T13:51:53;15.50;1.00
6146;DHT22;3104;50.348;7.620;2023-10-31T13:54:19;15.40;1.00
6146;DHT22;3104;50.348;7.620;2023-10-31T13:56:45;15.20;1.00
6146;DHT22;3104;50.348;7.620;2023-10-31T13:59:11;14.90;99.90
6146;DHT22;3104;50.348;7.620;2023-10-31T14:01:37;15.10;99.90
6146;DHT22;3104;50.348;7.620;2023-10-31T14:04:03;15.00;99.90
6146;DHT22;3104;50.348;7.620;2023-10-31T14:06:28;14.90;99.90
6146;DHT22;3104;50.348;7.620;2023-10-31T14:08:56;14.90;1.00
6146;DHT22;3104;50.348;7.620;2023-10-31T14:11:21;14.80;99.90
6146;DHT22;3104;50.348;7.620;2023-10-31T14:13:47;14.80;1.00
6146;DHT22;3104;50.348;7.620;2023-10-31T14:16:13;14.90;1.00
6146;DHT22;3104;50.348;7.620;2023-10-31T14:18:39;14.70;1.00
6146;DHT22;3104;50.348;7.620;2023-10-31T14:21:06;14.50;1.00
6146;DHT22;3104;50.348;7.620;2023-10-31T14:23:31;14.70;1.00
6146;DHT22;3104;50.348;7.620;2023-10-31T14:25:57;14.70;1.00
6146;DHT22;3104;50.348;7.620;2023-10-31T14:28:22;14.70;1.00
6146;DHT22;3104;50.348;7.620;2023-10-31T14:30:49;14.70;1.00
6146;DHT22;3104;50.348;7.620;2023-10-31T14:33:15;14.60;1.00
6146;DHT22;3104;50.348;7.620;2023-10-31T14:35:40;14.40;99.90
6146;DHT22;3104;50.348;7.620;2023-10-31T14:38:06;14.40;1.00
6146;DHT22;3104;50.348;7.620;2023-10-31T14:40:31;14.30;99.90
6146;DHT22;3104;50.348;7.620;2023-10-31T14:42:57;14.30;1.00
6146;DHT22;3104;50.348;7.620;2023-10-31T14:45:22;14.20;1.00
6146;DHT22;3104;50.348;7.620;2023-10-31T14:47:48;14.20;99.90
6146;DHT22;3104;50.348;7.620;2023-10-31T14:50:13;14.30;1.00
6146;DHT22;3104;50.348;7.620;2023-10-31T14:52:39;14.10;1.00
6146;DHT22;3104;50.348;7.620;2023-10-31T14:55:06;14.00;1.00
6146;DHT22;3104;50.348;7.620;2023-10-31T14:57:32;14.00;1.00
6146;DHT22;3104;50.348;7.620;2023-10-31T14:59:57;14.00;1.00
6146;DHT22;3104;50.348;7.620;2023-10-31T15:02:23;14.10;1.00
6146;DHT22;3104;50.348;7.620;2023-10-31T15:04:48;14.10;67.30
6146;DHT22;3104;50.348;7.620;2023-10-31T15:07:14;14.10;1.00
6146;DHT22;3104;50.348;7.620;2023-10-31T15:09:40;14.10;1.00
6146;DHT22;3104;50.348;7.620;2023-10-31T15:12:07;14.20;1.00
6146;DHT22;3104;50.348;7.620;2023-10-31T15:14:33;14.20;1.00
6146;DHT22;3104;50.348;7.620;2023-10-31T15:16:58;14.20;1.00
6146;DHT22;3104;50.348;7.620;2023-10-31T15:19:24;14.20;25.90
6146;DHT22;3104;50.348;7.620;2023-10-31T15:21:49;14.20;1.00
6146;DHT22;3104;50.348;7.620;2023-10-31T15:24:15;14.20;1.00
6146;DHT22;3104;50.348;7.620;2023-10-31T15:26:41;14.20;99.90
6146;DHT22;3104;50.348;7.620;2023-10-31T15:29:06;14.10;1.00
6146;DHT22;3104;50.348;7.620;2023-10-31T15:31:32;14.10;1.00
6146;DHT22;3104;50.348;7.620;2023-10-31T15:33:58;14.10;99.90
6146;DHT22;3104;50.348;7.620;2023-10-31T15:36:23;14.20;99.90
6146;DHT22;3104;50.348;7.620;2023-10-31T15:38:49;14.10;1.00
6146;DHT22;3104;50.348;7.620;2023-10-31T15:41:16;14.10;1.00
6146;DHT22;3104;50.348;7.620;2023-10-31T15:43:41;14.10;1.00
6146;DHT22;3104;50.348;7.620;2023-10-31T15:46:07;14.10;1.00
6146;DHT22;3104;50.348;7.620;2023-10-31T15:48:33;14.00;99.90
6146;DHT22;3104;50.348;7.620;2023-10-31T15:50:59;13.90;1.00
6146;DHT22;3104;50.348;7.620;2023-10-31T15:53:25;14.00;1.00
6146;DHT22;3104;50.348;7.620;2023-10-31T15:55:53;13.90;1.00
6146;DHT22;3104;50.348;7.620;2023-10-31T15:58:19;14.10;56.70
6146;DHT22;3104;50.348;7.620;2023-10-31T16:00:44;13.80;1.00
6146;DHT22;3104;50.348;7.620;2023-10-31T16:03:10;13.80;99.90
6146;DHT22;3104;50.348;7.620;2023-10-31T16:05:36;13.80;69.80